createdAt,value
2023-01-09T00:01:42.168Z,4.90
2023-01-09T00:04:11.059Z,5.00
2023-01-09T00:06:43.255Z,4.80
2023-01-09T00:09:12.208Z,4.80
2023-01-09T00:11:40.511Z,4.90
2023-01-09T00:14:10.928Z,4.80
2023-01-09T00:16:39.303Z,4.90
2023-01-09T00:19:07.863Z,4.90
2023-01-09T00:21:36.755Z,4.90
2023-01-09T00:24:07.897Z,4.90
2023-01-09T00:26:36.340Z,4.90
2023-01-09T00:29:04.876Z,4.80
2023-01-09T00:31:33.046Z,4.70
2023-01-09T00:34:06.514Z,4.70
2023-01-09T00:36:34.887Z,4.80
2023-01-09T00:39:03.289Z,4.70
2023-01-09T00:41:38.477Z,4.80
2023-01-09T00:44:13.327Z,4.70
2023-01-09T00:46:49.683Z,4.60
2023-01-09T00:49:19.470Z,4.60
2023-01-09T00:51:48.511Z,4.60
2023-01-09T00:54:20.288Z,4.60
2023-01-09T00:56:51.085Z,4.60
2023-01-09T00:59:19.346Z,4.40
2023-01-09T01:01:47.604Z,4.40
2023-01-09T01:04:33.394Z,4.30
2023-01-09T01:07:19.029Z,4.20
2023-01-09T01:09:47.184Z,4.10
2023-01-09T01:12:16.769Z,4.10
2023-01-09T01:14:44.955Z,4.20
2023-01-09T01:17:13.195Z,4.20
2023-01-09T01:19:41.389Z,4.10
2023-01-09T01:22:09.564Z,4.20
2023-01-09T01:24:37.740Z,4.20
2023-01-09T01:27:06.168Z,4.30
2023-01-09T01:29:35.679Z,4.20
2023-01-09T01:32:04.346Z,4.20
2023-01-09T01:34:32.591Z,4.10
2023-01-09T01:37:00.804Z,4.10
2023-01-09T01:39:29.157Z,4.10
2023-01-09T01:41:57.523Z,4.00
2023-01-09T01:45:08.366Z,4.00
2023-01-09T01:47:46.472Z,4.10
2023-01-09T01:50:25.354Z,4.20
2023-01-09T01:53:02.918Z,4.20
2023-01-09T01:55:31.673Z,4.20
2023-01-09T01:58:06.673Z,4.30
2023-01-09T02:00:42.517Z,4.10
2023-01-09T02:03:11.528Z,4.00
2023-01-09T02:05:40.959Z,4.00
2023-01-09T02:08:10.916Z,3.90
2023-01-09T02:10:40.832Z,3.80
2023-01-09T02:13:11.221Z,3.80
2023-01-09T02:15:59.275Z,3.70
2023-01-09T02:18:46.760Z,3.70
2023-01-09T02:21:41.158Z,3.80
2023-01-09T02:24:51.416Z,3.70
2023-01-09T02:28:07.029Z,3.70
2023-01-09T02:30:45.603Z,3.60
2023-01-09T02:33:40.628Z,4.00
2023-01-09T02:36:24.609Z,4.00
2023-01-09T02:39:17.025Z,4.00
2023-01-09T02:41:54.077Z,3.90
2023-01-09T02:44:25.356Z,3.90
2023-01-09T02:47:07.413Z,3.80
2023-01-09T02:49:39.257Z,3.80
2023-01-09T02:52:32.602Z,3.80
2023-01-09T02:55:10.713Z,3.80
2023-01-09T02:57:58.417Z,3.70
2023-01-09T03:00:41.472Z,3.60
2023-01-09T03:03:18.836Z,3.90
2023-01-09T03:05:59.118Z,3.90
2023-01-09T03:08:36.160Z,3.80
2023-01-09T03:11:07.767Z,3.80
2023-01-09T03:13:44.338Z,3.60
2023-01-09T03:16:19.014Z,3.80
2023-01-09T03:18:51.431Z,3.80
2023-01-09T03:21:22.619Z,3.90
2023-01-09T03:23:54.103Z,3.80
2023-01-09T03:26:23.072Z,3.70
2023-01-09T03:28:52.663Z,3.70
2023-01-09T03:31:20.862Z,3.70
2023-01-09T03:33:50.895Z,3.90
2023-01-09T03:36:21.644Z,3.90
2023-01-09T03:38:49.933Z,3.90
2023-01-09T03:41:19.237Z,3.90
2023-01-09T03:43:48.723Z,3.90
2023-01-09T03:46:17.399Z,3.90
2023-01-09T03:48:45.657Z,3.90
2023-01-09T03:51:15.196Z,3.90
2023-01-09T03:53:43.410Z,3.90
2023-01-09T03:56:11.682Z,3.90
2023-01-09T03:58:39.816Z,4.00
2023-01-09T04:01:09.387Z,4.10
2023-01-09T04:03:37.778Z,4.40
2023-01-09T04:06:07.318Z,4.30
2023-01-09T04:08:37.051Z,4.30
2023-01-09T04:11:05.438Z,4.40
2023-01-09T04:13:33.617Z,4.30
2023-01-09T04:16:01.925Z,4.30
2023-01-09T04:18:30.130Z,4.30
2023-01-09T04:20:58.371Z,4.30
2023-01-09T04:23:26.561Z,4.40
2023-01-09T04:25:56.089Z,4.40
2023-01-09T04:28:24.283Z,4.30
2023-01-09T04:30:52.440Z,4.40
2023-01-09T04:33:20.628Z,4.40
2023-01-09T04:35:48.839Z,4.40
2023-01-09T04:38:17.011Z,4.40
2023-01-09T04:40:45.186Z,4.40
2023-01-09T04:43:14.856Z,4.50
2023-01-09T04:45:43.164Z,4.50
2023-01-09T04:48:11.592Z,4.50
2023-01-09T04:50:39.771Z,4.50
2023-01-09T04:53:08.010Z,4.60
2023-01-09T04:55:36.155Z,4.60
2023-01-09T04:58:04.505Z,4.60
2023-01-09T05:00:34.098Z,4.50
2023-01-09T05:03:02.856Z,4.60
2023-01-09T05:05:31.039Z,4.60
2023-01-09T05:07:59.193Z,4.50
2023-01-09T05:10:27.395Z,4.80
2023-01-09T05:12:55.552Z,4.70
2023-01-09T05:15:23.726Z,4.70
2023-01-09T05:17:53.208Z,4.70
2023-01-09T05:20:21.304Z,4.70
2023-01-09T05:22:49.495Z,4.70
2023-01-09T05:25:17.891Z,4.70
2023-01-09T05:27:47.129Z,4.80
2023-01-09T05:30:18.345Z,4.80
2023-01-09T05:32:47.025Z,4.70
2023-01-09T05:35:16.799Z,4.80
2023-01-09T05:37:45.025Z,4.90
2023-01-09T05:40:14.376Z,5.00
2023-01-09T05:42:45.034Z,5.00
2023-01-09T05:45:13.423Z,4.80
2023-01-09T05:47:42.091Z,4.80
2023-01-09T05:50:12.239Z,5.10
2023-01-09T05:52:42.040Z,4.80
2023-01-09T05:55:12.257Z,5.00
2023-01-09T05:57:40.801Z,5.00
2023-01-09T06:00:11.135Z,4.90
2023-01-09T06:02:39.594Z,4.80
2023-01-09T06:05:10.086Z,4.80
2023-01-09T06:07:40.449Z,4.70
2023-01-09T06:10:14.011Z,4.70
2023-01-09T06:12:44.772Z,4.70
2023-01-09T06:15:15.376Z,4.70
2023-01-09T06:17:43.680Z,4.70
2023-01-09T06:20:12.887Z,4.70
2023-01-09T06:22:41.510Z,4.70
2023-01-09T06:25:11.832Z,4.60
2023-01-09T06:27:40.172Z,4.70
2023-01-09T06:30:10.506Z,4.60
2023-01-09T06:32:38.739Z,4.70
2023-01-09T06:35:07.616Z,4.60
2023-01-09T06:37:35.810Z,4.50
2023-01-09T06:40:04.331Z,4.60
2023-01-09T06:42:33.932Z,4.60
2023-01-09T06:45:02.263Z,4.60
2023-01-09T06:47:30.536Z,4.70
2023-01-09T06:49:58.718Z,4.60
2023-01-09T06:52:26.884Z,4.70
2023-01-09T06:54:55.068Z,4.60
2023-01-09T06:57:23.319Z,4.70
2023-01-09T06:59:52.858Z,4.60
2023-01-09T07:02:23.293Z,4.60
2023-01-09T07:04:51.533Z,4.50
2023-01-09T07:07:20.387Z,4.60
2023-01-09T07:09:48.636Z,4.60
2023-01-09T07:12:16.827Z,4.60
2023-01-09T07:14:45.242Z,4.50
2023-01-09T07:17:15.515Z,4.60
2023-01-09T07:19:43.880Z,4.60
2023-01-09T07:22:12.470Z,4.60
2023-01-09T07:24:40.670Z,4.60
2023-01-09T07:27:08.825Z,4.50
2023-01-09T07:29:37.098Z,4.60
2023-01-09T07:32:05.795Z,4.60
2023-01-09T07:34:35.476Z,4.50
2023-01-09T07:37:03.633Z,4.50
2023-01-09T07:39:31.833Z,4.60
2023-01-09T07:42:00.028Z,4.60
2023-01-09T07:44:28.360Z,4.60
2023-01-09T07:46:56.624Z,4.60
2023-01-09T07:49:26.768Z,4.50
2023-01-09T07:51:56.551Z,4.60
2023-01-09T07:54:24.777Z,4.70
2023-01-09T07:56:53.530Z,4.90
2023-01-09T07:59:21.750Z,4.80
2023-01-09T08:01:50.049Z,4.70
2023-01-09T08:04:18.379Z,4.60
2023-01-09T08:06:46.735Z,4.80
2023-01-09T08:09:16.418Z,4.70
2023-01-09T08:11:44.748Z,4.90
2023-01-09T08:14:13.164Z,4.70
2023-01-09T08:16:41.376Z,4.90
2023-01-09T08:19:12.010Z,4.90
2023-01-09T08:21:40.497Z,5.00
2023-01-09T08:24:10.636Z,5.00
2023-01-09T08:26:40.478Z,5.00
2023-01-09T08:29:08.724Z,5.10
2023-01-09T08:31:36.999Z,5.00
2023-01-09T08:34:05.427Z,5.10
2023-01-09T08:36:33.758Z,5.10
2023-01-09T08:39:02.109Z,5.00
2023-01-09T08:41:46.826Z,5.00
2023-01-09T08:44:34.003Z,5.00
2023-01-09T08:47:08.013Z,5.20
2023-01-09T08:49:38.714Z,5.20
2023-01-09T08:52:08.600Z,5.10
2023-01-09T08:54:38.949Z,5.30
2023-01-09T08:57:07.463Z,5.30
2023-01-09T08:59:37.213Z,5.30
2023-01-09T09:02:05.410Z,5.30
2023-01-09T09:04:33.743Z,5.20
2023-01-09T09:07:02.029Z,5.30
2023-01-09T09:09:30.231Z,5.50
2023-01-09T09:11:58.620Z,5.40
2023-01-09T09:14:44.516Z,5.50
2023-01-09T09:17:14.079Z,5.40
2023-01-09T09:19:42.717Z,5.50
2023-01-09T09:22:11.022Z,5.70
2023-01-09T09:24:39.257Z,5.70
2023-01-09T09:27:07.922Z,5.70
2023-01-09T09:29:36.123Z,5.60
2023-01-09T09:32:04.621Z,5.50
2023-01-09T09:34:34.174Z,5.40
2023-01-09T09:37:02.422Z,5.50
2023-01-09T09:39:30.770Z,5.40
2023-01-09T09:43:07.477Z,5.60
2023-01-09T09:45:51.924Z,5.70
2023-01-09T09:48:37.111Z,5.70
2023-01-09T09:51:49.713Z,5.60
2023-01-09T09:54:26.794Z,5.80
2023-01-09T09:57:00.592Z,5.60
2023-01-09T09:59:33.390Z,5.80
2023-01-09T10:02:14.789Z,5.90
2023-01-09T10:04:56.270Z,5.90
2023-01-09T10:07:33.238Z,6.00
2023-01-09T10:10:06.889Z,6.20
2023-01-09T10:12:44.905Z,6.40
2023-01-09T10:15:20.487Z,6.50
2023-01-09T10:18:05.604Z,6.50
2023-01-09T10:20:57.491Z,7.30
2023-01-09T10:24:13.017Z,6.30
2023-01-09T10:26:48.751Z,6.40
2023-01-09T10:29:44.516Z,6.30
2023-01-09T10:32:34.708Z,6.30
2023-01-09T10:35:27.433Z,6.30
2023-01-09T10:38:02.207Z,6.40
2023-01-09T10:40:40.621Z,6.30
2023-01-09T10:43:19.809Z,6.30
2023-01-09T10:45:54.593Z,6.60
2023-01-09T10:48:32.885Z,6.70
2023-01-09T10:51:01.263Z,6.40
2023-01-09T10:53:35.587Z,6.50
2023-01-09T10:56:18.935Z,6.60
2023-01-09T10:58:47.895Z,6.70
2023-01-09T11:01:17.943Z,6.60
2023-01-09T11:03:46.302Z,6.50
2023-01-09T11:06:25.578Z,6.60
2023-01-09T11:09:00.198Z,6.60
2023-01-09T11:11:40.687Z,6.70
2023-01-09T11:14:17.541Z,6.80
2023-01-09T11:16:54.537Z,6.40
2023-01-09T11:19:23.598Z,6.60
2023-01-09T11:21:52.093Z,6.90
2023-01-09T11:24:31.494Z,6.90
2023-01-09T11:27:24.776Z,6.70
2023-01-09T11:30:26.491Z,6.80
2023-01-09T11:32:56.399Z,7.10
2023-01-09T11:35:33.069Z,6.90
2023-01-09T11:38:15.387Z,7.00
2023-01-09T11:40:52.063Z,7.00
2023-01-09T11:43:32.697Z,6.90
2023-01-09T11:46:04.952Z,6.90
2023-01-09T11:48:42.949Z,6.90
2023-01-09T11:51:31.032Z,6.90
2023-01-09T11:54:13.238Z,6.80
2023-01-09T11:56:42.643Z,6.80
2023-01-09T11:59:15.844Z,6.80
2023-01-09T12:02:28.264Z,6.80
2023-01-09T12:05:02.306Z,6.90
2023-01-09T12:08:03.381Z,6.80
2023-01-09T12:11:04.362Z,6.90
2023-01-09T12:14:10.449Z,7.00
2023-01-09T12:16:55.280Z,7.10
2023-01-09T12:20:12.678Z,7.10
2023-01-09T12:22:57.276Z,7.20
2023-01-09T12:25:42.716Z,7.30
2023-01-09T12:28:40.030Z,7.20
2023-01-09T12:31:30.049Z,7.20
2023-01-09T12:34:16.225Z,7.40
2023-01-09T12:36:59.373Z,7.30
2023-01-09T12:39:44.559Z,7.40
2023-01-09T12:42:39.903Z,7.20
2023-01-09T12:45:38.760Z,6.10
2023-01-09T12:48:27.592Z,7.30
2023-01-09T12:51:23.871Z,7.20
2023-01-09T12:54:01.355Z,7.30
2023-01-09T12:56:36.769Z,7.40
2023-01-09T12:59:30.087Z,7.40
2023-01-09T13:02:12.688Z,7.50
2023-01-09T13:04:49.206Z,7.40
2023-01-09T13:07:25.240Z,7.50
2023-01-09T13:10:02.525Z,7.60
2023-01-09T13:12:39.566Z,7.60
2023-01-09T13:15:26.228Z,7.50
2023-01-09T13:18:02.591Z,7.60
2023-01-09T13:20:39.825Z,7.60
2023-01-09T13:23:23.152Z,7.70
2023-01-09T13:25:57.632Z,7.60
2023-01-09T13:28:32.475Z,7.70
2023-01-09T13:32:05.615Z,7.80
2023-01-09T13:34:38.498Z,7.70
2023-01-09T13:37:20.771Z,7.60
2023-01-09T13:39:58.866Z,7.60
2023-01-09T13:42:35.983Z,7.50
2023-01-09T13:45:21.607Z,7.60
2023-01-09T13:48:27.710Z,7.60
2023-01-09T13:52:00.739Z,7.60
2023-01-09T13:55:35.848Z,7.60
2023-01-09T13:58:26.049Z,7.70
2023-01-09T14:01:01.802Z,7.80
2023-01-09T14:03:35.015Z,7.80
2023-01-09T14:06:23.631Z,7.80
2023-01-09T14:09:19.240Z,7.70
2023-01-09T14:11:49.169Z,7.70
2023-01-09T14:14:33.086Z,7.60
2023-01-09T14:17:03.551Z,7.50
2023-01-09T14:19:38.465Z,7.50
2023-01-09T14:22:08.715Z,7.50
2023-01-09T14:24:46.597Z,7.60
2023-01-09T14:28:08.925Z,7.60
2023-01-09T14:31:07.860Z,7.50
2023-01-09T14:33:36.751Z,7.40
2023-01-09T14:36:15.617Z,7.40
2023-01-09T14:38:48.195Z,7.40
2023-01-09T14:41:48.747Z,7.30
2023-01-09T14:44:32.234Z,7.30
2023-01-09T14:47:13.626Z,7.30
2023-01-09T14:49:49.484Z,7.30
2023-01-09T14:52:27.847Z,7.30
2023-01-09T14:55:02.362Z,7.20
2023-01-09T14:57:34.095Z,7.20
2023-01-09T15:00:06.967Z,7.00
2023-01-09T15:02:39.780Z,6.90
2023-01-09T15:05:12.378Z,6.80
2023-01-09T15:07:46.375Z,6.80
2023-01-09T15:10:20.680Z,6.70
2023-01-09T15:12:52.584Z,6.60
2023-01-09T15:15:23.585Z,6.50
2023-01-09T15:17:59.286Z,6.40
2023-01-09T15:20:30.903Z,6.70
2023-01-09T15:23:01.632Z,6.50
2023-01-09T15:25:38.762Z,6.20
2023-01-09T15:28:32.512Z,6.20
2023-01-09T15:31:12.088Z,6.20
2023-01-09T15:33:44.653Z,5.90
2023-01-09T15:36:19.129Z,5.90
2023-01-09T15:38:49.248Z,5.80
2023-01-09T15:41:38.771Z,5.80
2023-01-09T15:44:15.299Z,5.60
2023-01-09T15:46:46.279Z,5.50
2023-01-09T15:49:16.159Z,5.40
2023-01-09T15:51:47.795Z,5.40
2023-01-09T15:54:18.285Z,5.30
2023-01-09T15:56:47.434Z,5.30
2023-01-09T15:59:33.493Z,5.30
2023-01-09T16:02:24.057Z,5.50
2023-01-09T16:04:56.652Z,5.70
2023-01-09T16:07:24.993Z,5.60
2023-01-09T16:09:53.225Z,5.60
2023-01-09T16:12:24.998Z,5.50
2023-01-09T16:14:57.530Z,5.60
2023-01-09T16:17:27.101Z,5.50
2023-01-09T16:19:58.993Z,5.50
2023-01-09T16:22:30.201Z,5.50
2023-01-09T16:25:01.246Z,5.50
2023-01-09T16:27:33.266Z,5.50
2023-01-09T16:30:03.166Z,5.50
2023-01-09T16:32:34.546Z,5.60
2023-01-09T16:35:07.732Z,5.60
2023-01-09T16:37:37.379Z,5.60
2023-01-09T16:40:32.083Z,5.70
2023-01-09T16:43:01.559Z,5.70
2023-01-09T16:45:34.308Z,5.70
2023-01-09T16:48:03.275Z,5.70
2023-01-09T16:50:32.849Z,5.70
2023-01-09T16:53:08.134Z,5.60
2023-01-09T16:55:36.321Z,5.60
2023-01-09T16:58:04.559Z,5.50
2023-01-09T17:00:33.018Z,5.40
2023-01-09T17:03:01.178Z,5.30
2023-01-09T17:05:29.379Z,5.20
2023-01-09T17:07:58.945Z,5.20
2023-01-09T17:10:27.212Z,5.20
2023-01-09T17:12:57.031Z,5.10
2023-01-09T17:15:25.300Z,5.20
2023-01-09T17:17:53.482Z,5.20
2023-01-09T17:20:25.274Z,5.20
2023-01-09T17:22:53.468Z,5.30
2023-01-09T17:25:40.546Z,5.30
2023-01-09T17:28:35.907Z,5.30
2023-01-09T17:31:09.039Z,5.40
2023-01-09T17:33:38.445Z,5.50
2023-01-09T17:36:20.974Z,5.60
2023-01-09T17:38:54.676Z,5.60
2023-01-09T17:41:26.078Z,5.60
2023-01-09T17:43:54.905Z,5.60
2023-01-09T17:46:28.992Z,5.70
2023-01-09T17:48:58.004Z,5.60
2023-01-09T17:51:26.519Z,5.60
2023-01-09T17:53:55.311Z,5.80
2023-01-09T17:56:28.443Z,6.00
2023-01-09T17:58:57.003Z,6.20
2023-01-09T18:01:25.435Z,6.20
2023-01-09T18:03:53.765Z,6.10
2023-01-09T18:06:23.390Z,6.20
2023-01-09T18:08:51.832Z,6.00
2023-01-09T18:11:22.721Z,6.00
2023-01-09T18:13:54.660Z,5.80
2023-01-09T18:16:25.965Z,5.00
2023-01-09T18:18:57.475Z,5.80
2023-01-09T18:21:28.225Z,5.80
2023-01-09T18:23:57.694Z,5.60
2023-01-09T18:26:25.942Z,5.50
2023-01-09T18:28:59.056Z,5.40
2023-01-09T18:31:29.338Z,5.30
2023-01-09T18:34:02.312Z,5.30
2023-01-09T18:36:31.440Z,5.60
2023-01-09T18:39:02.379Z,5.50
2023-01-09T18:41:31.934Z,5.40
2023-01-09T18:44:02.942Z,5.40
2023-01-09T18:46:32.207Z,5.40
2023-01-09T18:49:03.157Z,5.30
2023-01-09T18:51:33.367Z,5.30
2023-01-09T18:54:01.611Z,5.30
2023-01-09T18:56:29.797Z,5.30
2023-01-09T18:58:59.313Z,5.20
2023-01-09T19:01:30.957Z,5.10
2023-01-09T19:04:01.181Z,4.90
2023-01-09T19:06:31.101Z,4.80
2023-01-09T19:09:00.284Z,4.80
2023-01-09T19:11:28.521Z,4.50
2023-01-09T19:13:56.800Z,4.90
2023-01-09T19:16:25.041Z,4.90
2023-01-09T19:18:54.842Z,5.40
2023-01-09T19:21:26.756Z,4.90
2023-01-09T19:23:55.410Z,4.90
2023-01-09T19:26:26.414Z,4.90
2023-01-09T19:28:57.592Z,4.80
2023-01-09T19:31:28.869Z,4.80
2023-01-09T19:33:59.100Z,4.80
2023-01-09T19:36:28.717Z,4.70
2023-01-09T19:38:58.499Z,4.90
2023-01-09T19:41:27.250Z,4.90
2023-01-09T19:43:55.722Z,5.00
2023-01-09T19:46:26.654Z,5.10
2023-01-09T19:48:56.992Z,5.20
2023-01-09T19:51:27.090Z,5.10
2023-01-09T19:56:30.364Z,4.80
2023-01-09T19:59:01.112Z,4.80
2023-01-09T20:01:32.818Z,4.80
2023-01-09T20:04:04.938Z,4.80
2023-01-09T20:06:36.093Z,4.80
2023-01-09T20:09:07.588Z,4.80
2023-01-09T20:11:36.115Z,4.90
2023-01-09T20:14:04.379Z,4.90
2023-01-09T20:16:32.647Z,4.90
2023-01-09T20:19:06.439Z,4.80
2023-01-09T20:21:37.174Z,4.70
2023-01-09T20:24:07.095Z,4.70
2023-01-09T20:26:37.774Z,4.70
2023-01-09T20:29:08.567Z,4.70
2023-01-09T20:31:37.579Z,4.60
2023-01-09T20:34:06.187Z,4.60
2023-01-09T20:36:36.181Z,4.70
2023-01-09T20:39:07.913Z,4.60
2023-01-09T20:41:36.166Z,4.70
2023-01-09T20:44:07.763Z,4.60
2023-01-09T20:46:39.124Z,4.80
2023-01-09T20:49:11.088Z,4.80
2023-01-09T20:51:44.353Z,4.70
2023-01-09T20:54:13.681Z,4.70
2023-01-09T20:56:42.308Z,4.40
2023-01-09T20:59:14.154Z,4.50
2023-01-09T21:01:42.450Z,4.60
2023-01-09T21:04:11.220Z,5.10
2023-01-09T21:06:41.112Z,4.70
2023-01-09T21:09:09.453Z,4.70
2023-01-09T21:11:37.636Z,4.70
2023-01-09T21:14:05.829Z,4.80
2023-01-09T21:16:34.155Z,4.60
2023-01-09T21:19:02.431Z,4.60
2023-01-09T21:21:30.835Z,4.50
2023-01-09T21:24:01.551Z,4.50
2023-01-09T21:26:31.135Z,4.50
2023-01-09T21:29:02.235Z,4.60
2023-01-09T21:31:34.610Z,4.60
2023-01-09T21:34:04.932Z,4.50
2023-01-09T21:36:35.206Z,4.60
2023-01-09T21:39:08.349Z,4.60
2023-01-09T21:41:54.404Z,4.60
2023-01-09T21:44:39.894Z,4.60
2023-01-09T21:47:08.044Z,4.60
2023-01-09T21:49:36.314Z,4.30
2023-01-09T21:52:05.736Z,4.50
2023-01-09T21:54:35.819Z,4.50
2023-01-09T21:57:04.162Z,4.60
2023-01-09T21:59:32.771Z,4.70
2023-01-09T22:02:01.336Z,4.60
2023-01-09T22:04:30.647Z,4.50
2023-01-09T22:06:58.899Z,4.40
2023-01-09T22:09:27.481Z,4.50
2023-01-09T22:11:57.390Z,4.50
2023-01-09T22:14:25.578Z,4.30
2023-01-09T22:16:53.867Z,4.40
2023-01-09T22:19:22.317Z,4.30
2023-01-09T22:21:50.849Z,4.30
2023-01-09T22:24:21.712Z,4.20
2023-01-09T22:26:50.138Z,4.20
2023-01-09T22:29:19.721Z,4.20
2023-01-09T22:31:47.959Z,4.10
2023-01-09T22:34:18.366Z,4.10
2023-01-09T22:36:47.829Z,4.20
2023-01-09T22:39:19.222Z,4.20
2023-01-09T22:41:52.416Z,4.30
2023-01-09T22:44:22.284Z,4.30
2023-01-09T22:46:50.385Z,4.30
2023-01-09T22:49:18.551Z,4.20
2023-01-09T22:51:46.720Z,4.10
2023-01-09T22:54:14.916Z,4.20
2023-01-09T22:56:43.077Z,4.20
2023-01-09T22:59:11.537Z,4.00
2023-01-09T23:01:41.127Z,3.90
2023-01-09T23:04:13.439Z,3.80
2023-01-09T23:06:41.831Z,3.70
2023-01-09T23:09:10.060Z,3.60
2023-01-09T23:11:55.693Z,3.60
2023-01-09T23:14:24.019Z,3.80
2023-01-09T23:16:53.613Z,3.70
2023-01-09T23:19:21.938Z,3.90
2023-01-09T23:21:50.191Z,3.80
2023-01-09T23:24:20.098Z,3.80
2023-01-09T23:26:49.668Z,3.90
2023-01-09T23:29:17.836Z,3.90
2023-01-09T23:31:46.442Z,3.90
2023-01-09T23:34:19.542Z,3.90
2023-01-09T23:36:48.601Z,3.90
2023-01-09T23:39:16.960Z,3.80
2023-01-09T23:42:02.655Z,3.80
2023-01-09T23:44:31.304Z,3.90
2023-01-09T23:47:00.128Z,3.70
2023-01-09T23:49:30.220Z,3.80
2023-01-09T23:52:01.556Z,3.80
2023-01-09T23:54:29.820Z,3.70
2023-01-09T23:56:57.981Z,3.70
2023-01-09T23:59:26.559Z,3.60
